createdAt,value
2022-12-17T00:00:23.198Z,137.80
2022-12-17T00:03:52.777Z,132.80
2022-12-17T00:07:21.695Z,121.07
2022-12-17T00:10:42.508Z,107.83
2022-12-17T00:14:02.911Z,115.40
2022-12-17T00:17:26.505Z,105.53
2022-12-17T00:20:48.687Z,111.97
2022-12-17T00:24:11.931Z,83.30
2022-12-17T00:27:32.240Z,89.13
2022-12-17T00:30:52.708Z,83.30
2022-12-17T00:34:13.519Z,88.87
2022-12-17T00:37:35.496Z,98.80
2022-12-17T00:40:59.128Z,87.73
2022-12-17T00:44:24.531Z,95.90
2022-12-17T00:47:45.294Z,91.33
2022-12-17T00:51:05.891Z,95.67
2022-12-17T00:54:29.936Z,97.23
2022-12-17T00:57:50.967Z,82.30
2022-12-17T01:01:17.266Z,88.47
2022-12-17T01:04:40.676Z,97.73
2022-12-17T01:08:01.335Z,87.77
2022-12-17T01:11:26.112Z,92.33
2022-12-17T01:14:49.062Z,89.80
2022-12-17T01:18:11.624Z,90.83
2022-12-17T01:21:34.496Z,98.10
2022-12-17T01:24:56.177Z,107.83
2022-12-17T01:28:18.248Z,89.97
2022-12-17T01:31:41.258Z,96.60
2022-12-17T01:35:01.738Z,110.13
2022-12-17T01:38:41.606Z,103.97
2022-12-17T01:42:09.375Z,86.47
2022-12-17T01:45:34.034Z,100.93
2022-12-17T01:49:01.159Z,98.67
2022-12-17T01:52:22.468Z,97.40
2022-12-17T01:55:43.310Z,108.40
2022-12-17T01:59:05.855Z,107.03
2022-12-17T02:02:28.089Z,105.90
2022-12-17T02:05:57.088Z,105.97
2022-12-17T02:09:26.931Z,122.67
2022-12-17T02:12:56.956Z,96.37
2022-12-17T02:16:25.009Z,101.77
2022-12-17T02:20:00.910Z,109.83
2022-12-17T02:23:36.966Z,105.53
2022-12-17T02:27:03.209Z,104.30
2022-12-17T02:30:27.019Z,104.97
2022-12-17T02:33:48.564Z,106.63
2022-12-17T02:37:09.185Z,108.47
2022-12-17T02:40:32.287Z,100.27
2022-12-17T02:43:54.793Z,97.43
2022-12-17T02:47:18.816Z,110.60
2022-12-17T02:50:40.076Z,94.27
2022-12-17T02:54:23.302Z,105.70
2022-12-17T02:57:45.790Z,107.63
2022-12-17T03:01:09.807Z,105.50
2022-12-17T03:04:30.839Z,104.10
2022-12-17T03:07:51.819Z,108.57
2022-12-17T03:11:12.347Z,102.27
2022-12-17T03:14:33.072Z,108.17
2022-12-17T03:17:55.257Z,111.00
2022-12-17T03:21:24.748Z,96.77
2022-12-17T03:24:46.744Z,106.63
2022-12-17T03:28:07.779Z,91.90
2022-12-17T03:31:28.199Z,99.20
2022-12-17T03:34:50.079Z,105.93
2022-12-17T03:38:07.157Z,102.10
2022-12-17T03:41:28.467Z,99.43
2022-12-17T03:44:45.535Z,99.40
2022-12-17T03:48:05.953Z,93.13
2022-12-17T03:51:28.073Z,90.67
2022-12-17T03:54:49.129Z,116.80
2022-12-17T03:58:10.342Z,87.60
2022-12-17T04:01:31.625Z,90.57
2022-12-17T04:04:52.701Z,90.37
2022-12-17T04:08:16.842Z,92.93
2022-12-17T04:11:38.078Z,79.17
2022-12-17T04:14:59.317Z,83.93
2022-12-17T04:18:22.354Z,83.80
2022-12-17T04:21:43.346Z,70.93
2022-12-17T04:25:05.365Z,82.13
2022-12-17T04:28:25.985Z,74.67
2022-12-17T04:31:46.807Z,83.60
2022-12-17T04:35:07.588Z,88.13
2022-12-17T04:38:28.407Z,78.93
2022-12-17T04:41:52.549Z,76.43
2022-12-17T04:45:13.920Z,73.43
2022-12-17T04:48:38.012Z,76.63
2022-12-17T04:52:01.391Z,79.90
2022-12-17T04:55:22.565Z,80.43
2022-12-17T04:58:48.171Z,76.20
2022-12-17T05:02:09.555Z,88.07
2022-12-17T05:05:30.748Z,95.57
2022-12-17T05:08:51.558Z,91.77
2022-12-17T05:12:13.312Z,95.17
2022-12-17T05:15:38.127Z,88.80
2022-12-17T05:19:01.987Z,88.07
2022-12-17T05:22:22.897Z,86.50
2022-12-17T05:25:43.789Z,93.93
2022-12-17T05:29:04.708Z,88.43
2022-12-17T05:32:27.765Z,84.60
2022-12-17T05:35:53.190Z,84.67
2022-12-17T05:39:13.984Z,94.07
2022-12-17T05:42:34.552Z,80.03
2022-12-17T05:45:57.477Z,89.03
2022-12-17T05:49:22.664Z,83.67
2022-12-17T05:52:56.903Z,85.87
2022-12-17T05:56:17.701Z,77.23
2022-12-17T05:59:49.847Z,78.53
2022-12-17T06:03:17.374Z,81.80
2022-12-17T06:06:39.263Z,79.03
2022-12-17T06:09:59.809Z,77.60
2022-12-17T06:13:20.534Z,85.90
2022-12-17T06:16:41.175Z,86.83
2022-12-17T06:20:15.852Z,79.63
2022-12-17T06:23:52.918Z,75.13
2022-12-17T06:27:13.650Z,76.40
2022-12-17T06:30:45.794Z,66.77
2022-12-17T06:34:09.869Z,72.80
2022-12-17T06:37:30.887Z,78.13
2022-12-17T06:40:52.674Z,88.13
2022-12-17T06:44:18.925Z,69.77
2022-12-17T06:47:41.988Z,67.77
2022-12-17T06:51:03.231Z,75.47
2022-12-17T06:54:24.046Z,70.83
2022-12-17T06:57:50.560Z,76.47
2022-12-17T07:01:11.838Z,67.93
2022-12-17T07:04:35.962Z,67.90
2022-12-17T07:07:57.220Z,70.80
2022-12-17T07:11:18.534Z,66.30
2022-12-17T07:14:40.634Z,63.03
2022-12-17T07:18:03.696Z,69.40
2022-12-17T07:21:27.740Z,71.00
2022-12-17T07:24:48.742Z,74.70
2022-12-17T07:28:13.402Z,77.30
2022-12-17T07:31:45.387Z,72.93
2022-12-17T07:35:08.288Z,66.63
2022-12-17T07:38:30.724Z,72.70
2022-12-17T07:41:54.789Z,75.10
2022-12-17T07:45:15.318Z,72.40
2022-12-17T07:48:37.538Z,70.63
2022-12-17T07:51:58.040Z,77.07
2022-12-17T07:55:18.566Z,74.07
2022-12-17T07:58:39.181Z,71.20
2022-12-17T08:02:00.139Z,75.40
2022-12-17T08:05:22.854Z,71.30
2022-12-17T08:08:43.589Z,76.13
2022-12-17T08:12:04.557Z,62.80
2022-12-17T08:15:26.362Z,70.87
2022-12-17T08:18:47.365Z,71.97
2022-12-17T08:22:09.592Z,60.13
2022-12-17T08:25:30.627Z,63.33
2022-12-17T08:28:53.746Z,70.37
2022-12-17T08:32:14.539Z,73.80
2022-12-17T08:35:35.547Z,70.53
2022-12-17T08:38:57.669Z,66.03
2022-12-17T08:42:25.284Z,67.67
2022-12-17T08:45:46.142Z,59.97
2022-12-17T08:49:06.671Z,62.43
2022-12-17T08:52:27.506Z,63.77
2022-12-17T08:55:49.639Z,64.63
2022-12-17T08:59:10.405Z,59.73
2022-12-17T09:02:31.138Z,59.27
2022-12-17T09:05:52.078Z,61.40
2022-12-17T09:09:12.983Z,70.50
2022-12-17T09:12:35.472Z,61.03
2022-12-17T09:15:56.129Z,66.90
2022-12-17T09:19:17.107Z,66.63
2022-12-17T09:22:37.939Z,67.53
2022-12-17T09:25:58.498Z,65.47
2022-12-17T09:29:22.729Z,64.83
2022-12-17T09:32:43.457Z,73.63
2022-12-17T09:36:04.219Z,62.37
2022-12-17T09:39:24.883Z,61.30
2022-12-17T09:42:58.248Z,62.67
2022-12-17T09:46:28.461Z,60.90
2022-12-17T09:49:49.522Z,56.40
2022-12-17T09:53:25.371Z,60.63
2022-12-17T09:56:49.986Z,63.43
2022-12-17T10:00:13.346Z,64.53
2022-12-17T10:03:38.918Z,66.33
2022-12-17T10:06:59.848Z,70.70
2022-12-17T10:10:34.948Z,66.90
2022-12-17T10:13:55.788Z,68.50
2022-12-17T10:17:16.651Z,64.93
2022-12-17T10:20:43.267Z,69.87
2022-12-17T10:24:06.559Z,70.57
2022-12-17T10:27:29.044Z,68.80
2022-12-17T10:30:51.167Z,68.33
2022-12-17T10:34:20.620Z,73.97
2022-12-17T10:37:46.431Z,69.87
2022-12-17T10:41:18.478Z,70.97
2022-12-17T10:44:48.477Z,71.50
2022-12-17T10:48:09.026Z,76.40
2022-12-17T10:51:40.310Z,67.70
2022-12-17T10:55:05.010Z,69.93
2022-12-17T10:58:33.646Z,72.10
2022-12-17T11:01:58.319Z,82.63
2022-12-17T11:05:21.892Z,87.07
2022-12-17T11:08:45.735Z,82.20
2022-12-17T11:12:11.106Z,94.93
2022-12-17T11:15:44.489Z,81.20
2022-12-17T11:19:14.897Z,77.43
2022-12-17T11:22:50.420Z,81.43
2022-12-17T11:26:14.568Z,81.40
2022-12-17T11:29:36.727Z,84.80
2022-12-17T11:33:27.012Z,88.70
2022-12-17T11:36:56.514Z,84.83
2022-12-17T11:40:30.642Z,79.03
2022-12-17T11:44:00.931Z,91.63
2022-12-17T11:47:35.999Z,91.53
2022-12-17T11:51:03.242Z,88.10
2022-12-17T11:54:33.421Z,88.93
2022-12-17T11:58:08.365Z,83.23
2022-12-17T12:01:39.559Z,85.80
2022-12-17T12:05:29.809Z,82.83
2022-12-17T12:08:55.474Z,88.50
2022-12-17T12:12:24.131Z,85.37
2022-12-17T12:15:55.305Z,91.33
2022-12-17T12:19:25.163Z,84.00
2022-12-17T12:22:56.868Z,94.73
2022-12-17T12:26:27.693Z,94.87
2022-12-17T12:29:55.526Z,82.27
2022-12-17T12:33:36.145Z,85.83
2022-12-17T12:37:01.692Z,89.07
2022-12-17T12:40:33.446Z,82.17
2022-12-17T12:43:59.654Z,77.97
2022-12-17T12:47:28.819Z,73.17
2022-12-17T12:51:01.014Z,81.67
2022-12-17T12:54:42.316Z,73.77
2022-12-17T12:58:18.587Z,75.87
2022-12-17T13:01:51.942Z,88.13
2022-12-17T13:05:19.771Z,75.73
2022-12-17T13:08:29.617Z,75.97
2022-12-17T13:11:39.180Z,79.63
2022-12-17T13:14:53.373Z,80.43
2022-12-17T13:18:07.977Z,77.10
2022-12-17T13:21:27.512Z,78.53
2022-12-17T13:24:32.535Z,80.30
2022-12-17T13:27:40.643Z,86.23
2022-12-17T13:30:45.018Z,85.13
2022-12-17T13:33:57.863Z,78.93
2022-12-17T13:37:06.710Z,73.87
2022-12-17T13:40:26.704Z,69.00
2022-12-17T13:43:41.531Z,74.00
2022-12-17T13:46:51.948Z,73.40
2022-12-17T13:50:32.269Z,68.63
2022-12-17T13:53:23.896Z,69.27
2022-12-17T13:56:29.346Z,65.80
2022-12-17T13:59:32.528Z,71.20
2022-12-17T14:02:39.385Z,71.07
2022-12-17T14:05:46.014Z,75.73
2022-12-17T14:08:52.358Z,78.43
2022-12-17T14:12:13.724Z,66.83
2022-12-17T14:15:28.587Z,73.50
2022-12-17T14:18:33.059Z,73.37
2022-12-17T14:21:38.452Z,69.67
2022-12-17T14:24:41.485Z,77.03
2022-12-17T14:27:54.544Z,61.47
2022-12-17T14:34:41.534Z,69.93
2022-12-17T14:37:48.280Z,82.23
2022-12-17T14:40:54.961Z,70.73
2022-12-17T14:43:59.902Z,73.20
2022-12-17T14:47:16.909Z,78.47
2022-12-17T14:50:32.107Z,72.83
2022-12-17T14:53:36.391Z,71.40
2022-12-17T14:56:40.109Z,67.10
2022-12-17T14:59:43.426Z,74.07
2022-12-17T15:02:52.886Z,70.37
2022-12-17T15:05:59.981Z,76.80
2022-12-17T15:09:05.488Z,86.67
2022-12-17T15:12:08.938Z,83.23
2022-12-17T15:15:14.682Z,84.47
2022-12-17T15:18:20.906Z,81.03
2022-12-17T15:21:32.804Z,85.20
2022-12-17T15:24:36.034Z,85.33
2022-12-17T15:27:41.910Z,82.00
2022-12-17T15:30:45.856Z,71.90
2022-12-17T15:33:48.886Z,75.17
2022-12-17T15:36:53.251Z,83.13
2022-12-17T15:39:56.996Z,69.67
2022-12-17T15:43:12.704Z,82.77
2022-12-17T15:46:16.351Z,78.70
2022-12-17T15:49:19.500Z,66.00
2022-12-17T15:52:24.281Z,72.60
2022-12-17T15:55:27.941Z,75.07
2022-12-17T15:58:31.531Z,70.90
2022-12-17T16:01:35.360Z,69.90
2022-12-17T16:04:38.979Z,65.93
2022-12-17T16:07:44.284Z,66.47
2022-12-17T16:10:47.291Z,72.03
2022-12-17T16:13:55.092Z,69.10
2022-12-17T16:16:58.476Z,77.77
2022-12-17T16:20:01.671Z,72.17
2022-12-17T16:23:05.975Z,66.67
2022-12-17T16:26:11.986Z,78.13
2022-12-17T16:29:15.313Z,82.07
2022-12-17T16:32:18.725Z,79.53
2022-12-17T16:35:23.692Z,72.67
2022-12-17T16:38:28.640Z,76.37
2022-12-17T16:41:34.186Z,72.07
2022-12-17T16:44:37.187Z,71.60
2022-12-17T16:47:40.154Z,67.73
2022-12-17T16:50:43.196Z,78.53
2022-12-17T16:53:50.422Z,81.33
2022-12-17T16:56:54.818Z,73.63
2022-12-17T16:59:57.825Z,66.50
2022-12-17T17:03:01.606Z,78.63
2022-12-17T17:06:07.698Z,76.20
2022-12-17T17:09:13.650Z,69.60
2022-12-17T17:12:19.055Z,78.10
2022-12-17T17:15:23.305Z,72.63
2022-12-17T17:18:26.842Z,69.97
2022-12-17T17:21:35.191Z,75.87
2022-12-17T17:24:39.626Z,77.93
2022-12-17T17:27:45.768Z,77.37
2022-12-17T17:30:49.402Z,68.40
2022-12-17T17:33:55.811Z,70.50
2022-12-17T17:36:58.812Z,70.13
2022-12-17T17:40:03.415Z,80.40
2022-12-17T17:43:10.549Z,85.80
2022-12-17T17:46:17.696Z,73.80
2022-12-17T17:49:20.761Z,77.70
2022-12-17T18:08:39.033Z,60.97
2022-12-17T18:11:45.113Z,65.17
2022-12-17T18:15:12.756Z,62.63
2022-12-17T18:18:14.684Z,63.77
2022-12-17T18:21:23.207Z,64.37
2022-12-17T18:24:28.169Z,58.37
2022-12-17T18:27:32.042Z,61.27
2022-12-17T18:30:39.153Z,64.07
2022-12-17T18:33:45.852Z,74.33
2022-12-17T18:36:51.134Z,59.87
2022-12-17T18:39:56.156Z,70.87
2022-12-17T18:43:17.625Z,66.73
2022-12-17T18:46:23.489Z,67.20
2022-12-17T18:49:28.183Z,75.77
2022-12-17T18:52:32.471Z,73.97
2022-12-17T18:55:40.789Z,72.57
2022-12-17T18:58:45.201Z,65.47
2022-12-17T19:01:50.006Z,61.73
2022-12-17T19:04:53.609Z,68.90
2022-12-17T19:07:57.275Z,62.07
2022-12-17T19:11:07.139Z,56.67
2022-12-17T19:14:13.526Z,67.57
2022-12-17T19:17:16.983Z,65.23
2022-12-17T19:20:20.779Z,59.33
2022-12-17T19:23:26.598Z,70.07
2022-12-17T19:26:34.491Z,58.10
2022-12-17T19:29:39.061Z,51.80
2022-12-17T19:32:46.135Z,50.80
2022-12-17T19:35:49.951Z,53.70
2022-12-17T19:38:54.783Z,55.40
2022-12-17T19:41:59.235Z,54.33
2022-12-17T19:45:02.461Z,57.87
2022-12-17T19:48:05.734Z,54.37
2022-12-17T19:51:11.222Z,57.83
2022-12-17T19:54:15.687Z,54.13
2022-12-17T19:57:19.990Z,54.17
2022-12-17T20:00:23.366Z,54.13
2022-12-17T20:03:26.416Z,56.07
2022-12-17T20:06:33.098Z,62.77
2022-12-17T20:09:36.096Z,61.87
2022-12-17T20:12:40.424Z,59.93
2022-12-17T20:15:43.460Z,57.53
2022-12-17T20:18:46.492Z,56.67
2022-12-17T20:21:49.990Z,58.20
2022-12-17T20:24:53.147Z,58.53
2022-12-17T20:27:57.975Z,52.20
2022-12-17T20:31:01.915Z,52.07
2022-12-17T20:34:07.358Z,52.20
2022-12-17T20:37:10.313Z,47.10
2022-12-17T20:40:13.517Z,53.97
2022-12-17T20:43:17.826Z,59.10
2022-12-17T20:46:22.529Z,56.07
2022-12-17T20:49:25.594Z,53.73
2022-12-17T20:52:28.629Z,48.50
2022-12-17T20:55:31.665Z,65.33
2022-12-17T20:58:37.243Z,58.67
2022-12-17T21:01:40.717Z,54.13
2022-12-17T21:04:44.411Z,50.93
2022-12-17T21:07:47.477Z,48.37
2022-12-17T21:10:56.861Z,57.00
2022-12-17T21:14:04.754Z,51.03
2022-12-17T21:17:08.043Z,57.60
2022-12-17T21:20:12.196Z,59.67
2022-12-17T21:23:15.458Z,54.90
2022-12-17T21:26:21.560Z,58.73
2022-12-17T21:29:25.915Z,57.27
2022-12-17T21:32:33.663Z,55.87
2022-12-17T21:35:37.077Z,48.43
2022-12-17T21:38:40.665Z,49.80
2022-12-17T21:42:03.370Z,50.90
2022-12-17T21:45:09.376Z,54.00
2022-12-17T21:48:15.237Z,49.50
2022-12-17T21:51:18.689Z,49.43
2022-12-17T21:54:22.017Z,51.87
2022-12-17T21:57:25.158Z,51.00
2022-12-17T22:00:29.590Z,50.43
2022-12-17T22:03:32.583Z,51.47
2022-12-17T22:06:51.429Z,51.77
2022-12-17T22:10:33.339Z,47.90
2022-12-17T22:13:43.048Z,59.43
2022-12-17T22:16:49.878Z,55.70
2022-12-17T22:19:53.211Z,59.47
2022-12-17T22:22:56.404Z,52.70
2022-12-17T22:26:00.422Z,58.57
2022-12-17T22:29:04.467Z,68.90
2022-12-17T22:32:29.087Z,61.13
2022-12-17T22:36:52.297Z,57.00
2022-12-17T22:42:06.228Z,52.30
2022-12-17T22:44:49.039Z,61.27
2022-12-17T22:46:08.682Z,60.77
2022-12-17T22:49:13.763Z,56.43
2022-12-17T22:52:18.240Z,56.80
2022-12-17T22:55:23.365Z,57.13
2022-12-17T22:58:27.662Z,62.60
2022-12-17T23:01:32.032Z,50.70
2022-12-17T23:04:37.207Z,54.10
2022-12-17T23:07:41.174Z,49.53
2022-12-17T23:10:44.870Z,56.07
2022-12-17T23:13:48.731Z,50.73
2022-12-17T23:16:52.569Z,46.50
2022-12-17T23:19:57.544Z,53.43
2022-12-17T23:23:01.713Z,53.77
2022-12-17T23:26:09.779Z,53.93
2022-12-17T23:29:19.754Z,51.43
2022-12-17T23:32:23.859Z,50.50
2022-12-17T23:35:28.810Z,55.33
2022-12-17T23:38:34.038Z,72.07
2022-12-17T23:41:37.616Z,49.77
2022-12-17T23:44:41.145Z,54.60
2022-12-17T23:47:46.008Z,57.30
2022-12-17T23:50:50.486Z,73.70
2022-12-17T23:54:02.710Z,60.10
2022-12-17T23:57:06.272Z,53.40
